createdAt,value
2023-09-27T00:00:07.279Z,0.20
2023-09-27T00:02:40.358Z,0.30
2023-09-27T00:05:11.180Z,0.30
2023-09-27T00:07:40.841Z,0.30
2023-09-27T00:10:10.428Z,0.30
2023-09-27T00:12:38.105Z,0.30
2023-09-27T00:15:07.176Z,0.30
2023-09-27T00:17:34.867Z,0.30
2023-09-27T00:20:04.025Z,0.30
2023-09-27T00:22:31.507Z,0.30
2023-09-27T00:25:01.118Z,0.28
2023-09-27T00:27:28.614Z,0.30
2023-09-27T00:29:56.110Z,0.20
2023-09-27T00:32:23.945Z,0.30
2023-09-27T00:34:51.468Z,0.40
2023-09-27T00:37:18.961Z,0.22
2023-09-27T00:39:46.462Z,0.30
2023-09-27T00:42:15.333Z,0.20
2023-09-27T00:44:42.893Z,0.32
2023-09-27T00:47:10.445Z,0.20
2023-09-27T00:49:38.418Z,0.40
2023-09-27T00:52:06.316Z,0.30
2023-09-27T00:54:33.992Z,0.30
2023-09-27T00:57:01.796Z,0.40
2023-09-27T00:59:31.100Z,0.25
2023-09-27T01:01:58.705Z,0.30
2023-09-27T01:04:26.705Z,0.40
2023-09-27T01:06:54.329Z,0.30
2023-09-27T01:09:23.262Z,0.30
2023-09-27T01:11:50.917Z,0.30
2023-09-27T01:14:18.707Z,0.30
2023-09-27T01:16:47.979Z,0.38
2023-09-27T01:19:15.556Z,0.30
2023-09-27T01:21:43.077Z,0.30
2023-09-27T01:24:35.355Z,0.40
2023-09-27T01:27:04.227Z,0.30
2023-09-27T01:29:32.561Z,0.30
2023-09-27T01:32:00.175Z,0.32
2023-09-27T01:34:27.773Z,0.30
2023-09-27T01:36:56.855Z,0.30
2023-09-27T01:39:25.389Z,0.30
2023-09-27T01:41:52.908Z,0.20
2023-09-27T01:44:21.836Z,0.20
2023-09-27T01:46:49.338Z,0.32
2023-09-27T01:49:17.001Z,0.30
2023-09-27T01:51:44.499Z,0.30
2023-09-27T01:54:12.545Z,0.30
2023-09-27T01:56:40.602Z,0.30
2023-09-27T01:59:08.136Z,0.30
2023-09-27T02:01:37.019Z,0.40
2023-09-27T02:04:05.342Z,0.40
2023-09-27T02:06:33.015Z,0.40
2023-09-27T02:09:00.501Z,0.30
2023-09-27T02:11:28.034Z,0.40
2023-09-27T02:13:55.810Z,0.30
2023-09-27T02:16:23.320Z,0.40
2023-09-27T02:18:52.462Z,0.30
2023-09-27T02:21:20.237Z,0.30
2023-09-27T02:23:47.714Z,0.30
2023-09-27T02:26:15.348Z,0.30
2023-09-27T02:28:44.284Z,0.40
2023-09-27T02:31:12.143Z,0.30
2023-09-27T02:33:39.777Z,0.30
2023-09-27T02:36:09.364Z,0.35
2023-09-27T02:38:38.084Z,0.32
2023-09-27T02:41:05.797Z,0.40
2023-09-27T02:43:33.296Z,0.38
2023-09-27T02:46:00.891Z,0.30
2023-09-27T02:48:30.101Z,0.38
2023-09-27T02:50:57.612Z,0.30
2023-09-27T02:53:26.445Z,0.40
2023-09-27T02:55:53.962Z,0.22
2023-09-27T02:58:22.237Z,0.30
2023-09-27T03:00:50.225Z,0.30
2023-09-27T03:03:20.570Z,0.30
2023-09-27T03:05:48.346Z,0.30
2023-09-27T03:08:15.889Z,0.30
2023-09-27T03:10:44.796Z,0.30
2023-09-27T03:13:12.675Z,0.30
2023-09-27T03:15:41.887Z,0.30
2023-09-27T03:18:09.516Z,0.30
2023-09-27T03:20:37.528Z,0.30
2023-09-27T03:23:05.377Z,0.30
2023-09-27T03:25:33.018Z,0.30
2023-09-27T03:28:01.829Z,0.32
2023-09-27T03:30:29.327Z,0.30
2023-09-27T03:32:56.997Z,0.45
2023-09-27T03:35:24.572Z,0.40
2023-09-27T03:37:52.153Z,0.40
2023-09-27T03:40:19.665Z,0.35
2023-09-27T03:42:47.744Z,0.40
2023-09-27T03:45:17.832Z,0.40
2023-09-27T03:47:47.487Z,0.43
2023-09-27T03:50:19.831Z,0.30
2023-09-27T03:52:47.404Z,0.30
2023-09-27T03:55:14.923Z,0.30
2023-09-27T03:57:42.842Z,0.30
2023-09-27T04:00:14.931Z,0.30
2023-09-27T04:02:45.381Z,0.40
2023-09-27T04:05:13.700Z,0.40
2023-09-27T04:07:41.480Z,0.40
2023-09-27T04:10:09.893Z,0.43
2023-09-27T04:12:37.466Z,0.30
2023-09-27T04:15:07.781Z,0.40
2023-09-27T04:17:35.394Z,0.40
2023-09-27T04:20:10.244Z,0.30
2023-09-27T04:22:37.781Z,0.30
2023-09-27T04:25:05.558Z,0.20
2023-09-27T04:27:33.042Z,0.30
2023-09-27T04:30:00.498Z,0.30
2023-09-27T04:32:28.095Z,0.40
2023-09-27T04:34:55.643Z,0.40
2023-09-27T04:37:24.509Z,0.40
2023-09-27T04:39:52.006Z,0.40
2023-09-27T04:42:19.462Z,0.30
2023-09-27T04:44:47.268Z,0.30
2023-09-27T04:47:14.788Z,0.38
2023-09-27T04:49:42.306Z,0.30
2023-09-27T04:52:09.752Z,0.40
2023-09-27T04:54:38.559Z,0.40
2023-09-27T04:57:06.022Z,0.43
2023-09-27T04:59:33.547Z,0.40
2023-09-27T05:02:01.994Z,0.30
2023-09-27T05:04:29.569Z,0.40
2023-09-27T05:06:58.129Z,0.30
2023-09-27T05:09:27.470Z,0.30
2023-09-27T05:11:56.407Z,0.30
2023-09-27T05:14:23.942Z,0.30
2023-09-27T05:16:51.493Z,0.40
2023-09-27T05:19:19.022Z,0.30
2023-09-27T05:21:47.029Z,0.30
2023-09-27T05:24:15.407Z,0.47
2023-09-27T05:26:42.950Z,0.30
2023-09-27T05:29:14.895Z,0.30
2023-09-27T05:31:42.532Z,0.30
2023-09-27T05:34:09.993Z,0.30
2023-09-27T05:36:37.497Z,0.22
2023-09-27T05:39:06.854Z,0.20
2023-09-27T05:41:34.354Z,0.20
2023-09-27T05:44:01.896Z,0.20
2023-09-27T05:46:30.701Z,0.30
2023-09-27T05:48:58.229Z,0.30
2023-09-27T05:51:27.705Z,0.20
2023-09-27T05:53:55.295Z,0.13
2023-09-27T05:56:22.821Z,0.20
2023-09-27T05:58:50.384Z,0.20
2023-09-27T06:01:20.463Z,0.10
2023-09-27T06:03:49.458Z,0.20
2023-09-27T06:06:17.060Z,0.20
2023-09-27T06:08:44.598Z,0.10
2023-09-27T06:11:12.223Z,0.10
2023-09-27T06:13:39.936Z,0.10
2023-09-27T06:16:13.932Z,0.10
2023-09-27T06:18:41.529Z,0.00
2023-09-27T06:21:10.472Z,0.10
2023-09-27T06:23:38.101Z,0.00
2023-09-27T06:26:08.410Z,0.10
2023-09-27T06:28:37.839Z,0.00
2023-09-27T06:31:07.189Z,0.00
2023-09-27T06:33:35.133Z,0.00
2023-09-27T06:36:03.267Z,0.00
2023-09-27T06:38:32.116Z,0.00
2023-09-27T06:40:59.603Z,0.00
2023-09-27T06:43:29.483Z,0.00
2023-09-27T06:45:56.978Z,0.00
2023-09-27T06:48:25.296Z,0.00
2023-09-27T06:50:52.862Z,0.00
2023-09-27T06:53:24.133Z,0.00
2023-09-27T06:55:54.834Z,0.00
2023-09-27T06:58:24.393Z,0.00
2023-09-27T07:00:52.712Z,0.00
2023-09-27T07:03:26.221Z,0.00
2023-09-27T07:05:54.247Z,0.00
2023-09-27T07:08:22.344Z,0.00
2023-09-27T07:10:49.868Z,0.00
2023-09-27T07:13:18.684Z,0.00
2023-09-27T07:15:47.107Z,0.00
2023-09-27T07:18:15.334Z,0.00
2023-09-27T07:20:43.460Z,0.00
2023-09-27T07:23:16.222Z,0.00
2023-09-27T07:25:44.157Z,0.00
2023-09-27T07:28:11.829Z,0.00
2023-09-27T07:30:40.776Z,0.00
2023-09-27T07:33:12.284Z,0.00
2023-09-27T07:35:43.517Z,0.00
2023-09-27T07:38:11.838Z,0.00
2023-09-27T07:40:39.884Z,0.00
2023-09-27T07:43:07.690Z,0.00
2023-09-27T07:45:37.584Z,0.00
2023-09-27T07:48:07.379Z,0.00
2023-09-27T07:50:38.190Z,0.00
2023-09-27T07:53:07.328Z,0.00
2023-09-27T07:55:36.473Z,0.00
2023-09-27T07:58:05.033Z,0.00
2023-09-27T08:00:34.188Z,0.00
2023-09-27T08:03:02.023Z,0.00
2023-09-27T08:05:32.365Z,0.00
2023-09-27T08:08:00.717Z,0.00
2023-09-27T08:10:30.470Z,0.00
2023-09-27T08:12:57.928Z,0.00
2023-09-27T08:15:25.389Z,0.00
2023-09-27T08:17:53.399Z,0.00
2023-09-27T08:20:20.985Z,0.00
2023-09-27T08:22:49.796Z,0.00
2023-09-27T08:25:17.830Z,0.00
2023-09-27T08:27:46.013Z,0.00
2023-09-27T08:30:14.107Z,0.00
2023-09-27T08:32:42.610Z,0.00
2023-09-27T08:35:11.372Z,0.00
2023-09-27T08:37:39.019Z,0.00
2023-09-27T08:40:08.807Z,0.00
2023-09-27T08:42:36.347Z,0.00
2023-09-27T08:45:05.751Z,0.00
2023-09-27T08:47:33.665Z,0.00
2023-09-27T08:50:01.224Z,0.00
2023-09-27T08:52:32.905Z,0.00
2023-09-27T08:55:00.589Z,0.00
2023-09-27T08:57:37.980Z,0.00
2023-09-27T09:00:14.802Z,0.00
2023-09-27T09:02:42.619Z,0.00
2023-09-27T09:05:13.056Z,0.00
2023-09-27T09:07:43.004Z,0.00
2023-09-27T09:10:16.765Z,0.00
2023-09-27T09:12:48.302Z,0.00
2023-09-27T09:15:28.584Z,0.00
2023-09-27T09:17:58.968Z,0.00
2023-09-27T09:20:33.419Z,0.00
2023-09-27T09:23:04.811Z,0.00
2023-09-27T09:25:34.095Z,0.10
2023-09-27T09:28:08.774Z,0.10
2023-09-27T09:30:37.338Z,0.10
2023-09-27T09:33:05.500Z,0.10
2023-09-27T09:35:33.552Z,0.10
2023-09-27T09:38:01.358Z,0.10
2023-09-27T09:40:29.907Z,0.10
2023-09-27T09:42:59.744Z,0.10
2023-09-27T09:45:29.980Z,0.10
2023-09-27T09:47:58.657Z,0.10
2023-09-27T09:50:28.268Z,0.10
2023-09-27T09:52:58.357Z,0.10
2023-09-27T09:55:48.733Z,0.10
2023-09-27T09:58:19.314Z,0.10
2023-09-27T10:00:50.969Z,0.10
2023-09-27T10:03:22.143Z,0.10
2023-09-27T10:05:51.692Z,0.20
2023-09-27T10:08:19.768Z,0.10
2023-09-27T10:10:48.206Z,0.10
2023-09-27T10:13:15.840Z,0.20
2023-09-27T10:15:43.895Z,0.10
2023-09-27T10:18:34.589Z,0.10
2023-09-27T10:21:06.104Z,0.10
2023-09-27T10:23:37.223Z,0.15
2023-09-27T10:26:28.952Z,0.10
2023-09-27T10:29:13.668Z,0.10
2023-09-27T10:31:59.870Z,0.10
2023-09-27T10:34:41.378Z,0.20
2023-09-27T10:37:19.580Z,0.20
2023-09-27T10:40:08.334Z,0.17
2023-09-27T10:42:43.389Z,0.20
2023-09-27T10:45:11.188Z,0.10
2023-09-27T10:47:38.907Z,0.20
2023-09-27T10:50:06.834Z,0.10
2023-09-27T10:52:35.674Z,0.10
2023-09-27T10:55:10.863Z,0.20
2023-09-27T10:57:38.660Z,0.17
2023-09-27T11:00:10.634Z,0.10
2023-09-27T11:02:39.037Z,0.20
2023-09-27T11:05:08.101Z,0.20
2023-09-27T11:07:47.344Z,0.20
2023-09-27T11:10:19.812Z,0.10
2023-09-27T11:12:47.588Z,0.20
2023-09-27T11:15:23.417Z,0.10
2023-09-27T11:17:55.921Z,0.15
2023-09-27T11:20:25.815Z,0.10
2023-09-27T11:22:59.592Z,0.10
2023-09-27T11:25:27.543Z,0.10
2023-09-27T11:27:55.063Z,0.20
2023-09-27T11:30:25.805Z,0.20
2023-09-27T11:32:53.493Z,0.13
2023-09-27T11:35:21.222Z,0.15
2023-09-27T11:37:49.725Z,0.10
2023-09-27T11:40:33.865Z,0.20
2023-09-27T11:43:02.245Z,0.20
2023-09-27T11:45:29.725Z,0.10
2023-09-27T11:47:57.300Z,0.20
2023-09-27T11:50:24.793Z,0.10
2023-09-27T11:52:52.248Z,0.10
2023-09-27T11:55:21.100Z,0.15
2023-09-27T11:57:48.558Z,0.10
2023-09-27T12:00:17.222Z,0.10
2023-09-27T12:02:56.237Z,0.20
2023-09-27T12:05:26.188Z,0.20
2023-09-27T12:07:54.467Z,0.20
2023-09-27T12:10:23.552Z,0.20
2023-09-27T12:12:51.068Z,0.10
2023-09-27T12:15:18.600Z,0.10
2023-09-27T12:17:46.183Z,0.10
2023-09-27T12:20:26.676Z,0.10
2023-09-27T12:22:55.065Z,0.13
2023-09-27T12:25:24.054Z,0.10
2023-09-27T12:27:51.502Z,0.10
2023-09-27T12:30:19.391Z,0.10
2023-09-27T12:32:46.921Z,0.10
2023-09-27T12:35:14.664Z,0.20
2023-09-27T12:37:42.248Z,0.20
2023-09-27T12:40:10.354Z,0.10
2023-09-27T12:42:39.211Z,0.10
2023-09-27T12:45:08.220Z,0.10
2023-09-27T12:47:35.974Z,0.10
2023-09-27T12:50:04.789Z,0.10
2023-09-27T12:52:33.047Z,0.10
2023-09-27T12:55:00.519Z,0.10
2023-09-27T12:57:28.857Z,0.10
2023-09-27T12:59:58.002Z,0.10
2023-09-27T13:02:25.856Z,0.15
2023-09-27T13:04:53.480Z,0.10
2023-09-27T13:07:20.992Z,0.20
2023-09-27T13:09:48.477Z,0.15
2023-09-27T13:12:15.956Z,0.20
2023-09-27T13:14:43.470Z,0.20
2023-09-27T13:17:12.620Z,0.20
2023-09-27T13:19:40.161Z,0.20
2023-09-27T13:22:08.193Z,0.20
2023-09-27T13:24:35.657Z,0.10
2023-09-27T13:27:03.106Z,0.10
2023-09-27T13:29:31.295Z,0.10
2023-09-27T13:31:59.081Z,0.10
2023-09-27T13:34:27.883Z,0.10
2023-09-27T13:36:55.501Z,0.10
2023-09-27T13:39:29.318Z,0.10
2023-09-27T13:41:56.872Z,0.15
2023-09-27T13:44:24.653Z,0.13
2023-09-27T13:46:52.993Z,0.15
2023-09-27T13:49:20.476Z,0.10
2023-09-27T13:51:49.294Z,0.20
2023-09-27T13:54:16.770Z,0.20
2023-09-27T13:56:44.256Z,0.10
2023-09-27T13:59:11.782Z,0.15
2023-09-27T14:01:40.093Z,0.20
2023-09-27T14:04:08.664Z,0.20
2023-09-27T14:06:36.222Z,0.10
2023-09-27T14:09:05.452Z,0.10
2023-09-27T14:11:33.035Z,0.10
2023-09-27T14:14:00.573Z,0.10
2023-09-27T14:16:28.807Z,0.13
2023-09-27T14:18:56.619Z,0.10
2023-09-27T14:21:24.264Z,0.20
2023-09-27T14:23:52.529Z,0.10
2023-09-27T14:26:21.839Z,0.10
2023-09-27T14:28:49.427Z,0.10
2023-09-27T14:33:45.030Z,0.15
2023-09-27T14:36:13.266Z,0.10
2023-09-27T14:38:40.759Z,0.10
2023-09-27T14:41:08.692Z,0.10
2023-09-27T14:43:38.174Z,0.10
2023-09-27T14:46:10.080Z,0.10
2023-09-27T14:48:38.351Z,0.20
2023-09-27T14:51:05.857Z,0.10
2023-09-27T14:53:33.337Z,0.20
2023-09-27T14:56:07.234Z,0.10
2023-09-27T14:58:35.120Z,0.10
2023-09-27T15:01:05.106Z,0.10
2023-09-27T15:03:33.190Z,0.20
2023-09-27T15:06:01.744Z,0.10
2023-09-27T15:08:29.186Z,0.10
2023-09-27T15:10:56.909Z,0.10
2023-09-27T15:13:24.405Z,0.10
2023-09-27T15:15:51.944Z,0.20
2023-09-27T15:18:22.695Z,0.10
2023-09-27T15:20:52.560Z,0.20
2023-09-27T15:23:21.780Z,0.10
2023-09-27T15:25:50.242Z,0.10
2023-09-27T15:28:17.888Z,0.10
2023-09-27T15:30:45.751Z,0.10
2023-09-27T15:33:15.389Z,0.20
2023-09-27T15:35:52.193Z,0.10
2023-09-27T15:38:19.708Z,0.10
2023-09-27T15:40:47.283Z,0.20
2023-09-27T15:43:14.778Z,0.20
2023-09-27T15:45:42.321Z,0.10
2023-09-27T15:48:10.119Z,0.20
2023-09-27T15:50:38.043Z,0.10
2023-09-27T15:53:07.062Z,0.20
2023-09-27T15:55:36.283Z,0.10
2023-09-27T15:58:05.586Z,0.20
2023-09-27T16:00:34.197Z,0.10
2023-09-27T16:03:02.108Z,0.10
2023-09-27T16:05:29.645Z,0.10
2023-09-27T16:07:57.660Z,0.20
2023-09-27T16:10:26.983Z,0.15
2023-09-27T16:12:54.527Z,0.13
2023-09-27T16:15:22.420Z,0.20
2023-09-27T16:17:49.985Z,0.20
2023-09-27T16:20:17.513Z,0.20
2023-09-27T16:22:47.272Z,0.20
2023-09-27T16:25:14.807Z,0.20
2023-09-27T16:27:43.615Z,0.20
2023-09-27T16:30:13.712Z,0.10
2023-09-27T16:32:42.184Z,0.20
2023-09-27T16:35:10.120Z,0.20
2023-09-27T16:37:37.697Z,0.20
2023-09-27T16:40:05.797Z,0.10
2023-09-27T16:42:33.233Z,0.20
2023-09-27T16:45:02.300Z,0.20
2023-09-27T16:47:29.796Z,0.10
2023-09-27T16:49:57.426Z,0.20
2023-09-27T16:52:24.971Z,0.20
2023-09-27T16:54:52.487Z,0.20
2023-09-27T16:57:21.617Z,0.20
2023-09-27T16:59:49.111Z,0.20
2023-09-27T17:02:18.155Z,0.20
2023-09-27T17:04:45.900Z,0.15
2023-09-27T17:07:13.428Z,0.20
2023-09-27T17:09:40.922Z,0.10
2023-09-27T17:12:08.502Z,0.20
2023-09-27T17:14:36.238Z,0.17
2023-09-27T17:17:03.738Z,0.20
2023-09-27T17:19:32.576Z,0.22
2023-09-27T17:22:00.202Z,0.20
2023-09-27T17:24:27.666Z,0.20
2023-09-27T17:26:56.391Z,0.25
2023-09-27T17:29:24.058Z,0.20
2023-09-27T17:31:52.368Z,0.20
2023-09-27T17:34:21.463Z,0.20
2023-09-27T17:36:50.275Z,0.10
2023-09-27T17:39:17.747Z,0.30
2023-09-27T17:41:47.364Z,0.20
2023-09-27T17:44:15.036Z,0.20
2023-09-27T17:46:42.563Z,0.20
2023-09-27T17:49:10.082Z,0.20
2023-09-27T17:51:39.250Z,0.20
2023-09-27T17:54:09.568Z,0.20
2023-09-27T17:56:37.146Z,0.20
2023-09-27T17:59:04.661Z,0.30
2023-09-27T18:01:32.271Z,0.20
2023-09-27T18:03:59.878Z,0.20
2023-09-27T18:06:27.631Z,0.20
2023-09-27T18:08:55.279Z,0.20
2023-09-27T18:11:24.133Z,0.20
2023-09-27T18:13:52.202Z,0.20
2023-09-27T18:16:20.764Z,0.30
2023-09-27T18:18:49.300Z,0.20
2023-09-27T18:21:17.645Z,0.20
2023-09-27T18:23:45.481Z,0.20
2023-09-27T18:26:13.334Z,0.20
2023-09-27T18:28:42.249Z,0.20
2023-09-27T18:31:09.848Z,0.20
2023-09-27T18:33:37.472Z,0.20
2023-09-27T18:36:05.348Z,0.20
2023-09-27T18:38:32.852Z,0.20
2023-09-27T18:41:00.422Z,0.20
2023-09-27T18:43:27.917Z,0.20
2023-09-27T18:45:56.798Z,0.20
2023-09-27T18:48:24.447Z,0.10
2023-09-27T18:50:52.558Z,0.20
2023-09-27T18:53:20.019Z,0.20
2023-09-27T18:55:47.533Z,0.20
2023-09-27T18:58:15.612Z,0.20
2023-09-27T19:00:43.410Z,0.20
2023-09-27T19:03:13.761Z,0.20
2023-09-27T19:05:41.397Z,0.30
2023-09-27T19:08:09.305Z,0.20
2023-09-27T19:10:39.151Z,0.20
2023-09-27T19:13:06.892Z,0.20
2023-09-27T19:15:34.670Z,0.30
2023-09-27T19:18:02.388Z,0.20
2023-09-27T19:20:32.649Z,0.20
2023-09-27T19:23:00.298Z,0.20
2023-09-27T19:25:27.898Z,0.20
2023-09-27T19:27:57.375Z,0.20
2023-09-27T19:30:24.918Z,0.22
2023-09-27T19:32:52.420Z,0.30
2023-09-27T19:35:19.897Z,0.20
2023-09-27T19:37:48.776Z,0.20
2023-09-27T19:40:16.367Z,0.30
2023-09-27T19:42:43.953Z,0.30
2023-09-27T19:45:12.058Z,0.20
2023-09-27T19:47:39.627Z,0.20
2023-09-27T19:50:09.737Z,0.20
2023-09-27T19:52:38.835Z,0.20
2023-09-27T19:55:09.921Z,0.30
2023-09-27T19:57:37.418Z,0.20
2023-09-27T20:00:06.354Z,0.20
2023-09-27T20:02:36.588Z,0.20
2023-09-27T20:05:04.511Z,0.20
2023-09-27T20:07:32.119Z,0.20
2023-09-27T20:09:59.687Z,0.20
2023-09-27T20:12:28.505Z,0.20
2023-09-27T20:14:56.072Z,0.20
2023-09-27T20:17:24.104Z,0.30
2023-09-27T20:19:51.777Z,0.28
2023-09-27T20:22:20.010Z,0.20
2023-09-27T20:24:47.734Z,0.20
2023-09-27T20:27:16.143Z,0.20
2023-09-27T20:29:46.368Z,0.20
2023-09-27T20:32:13.890Z,0.20
2023-09-27T20:34:42.271Z,0.20
2023-09-27T20:37:09.770Z,0.20
2023-09-27T20:39:38.525Z,0.20
2023-09-27T20:42:06.219Z,0.20
2023-09-27T20:44:33.680Z,0.13
2023-09-27T20:47:02.554Z,0.30
2023-09-27T20:49:30.614Z,0.20
2023-09-27T20:51:58.146Z,0.20
2023-09-27T20:54:25.644Z,0.20
2023-09-27T20:56:53.131Z,0.20
2023-09-27T20:59:20.742Z,0.22
2023-09-27T21:01:48.355Z,0.20
2023-09-27T21:04:17.659Z,0.20
2023-09-27T21:06:48.454Z,0.20
2023-09-27T21:09:15.954Z,0.20
2023-09-27T21:11:43.457Z,0.20
2023-09-27T21:14:11.605Z,0.20
2023-09-27T21:16:39.126Z,0.20
2023-09-27T21:19:06.891Z,0.22
2023-09-27T21:21:35.699Z,0.30
2023-09-27T21:24:03.170Z,0.20
2023-09-27T21:26:30.648Z,0.20
2023-09-27T21:28:58.189Z,0.30
2023-09-27T21:31:25.730Z,0.28
2023-09-27T21:33:53.712Z,0.20
2023-09-27T21:36:21.318Z,0.30
2023-09-27T21:38:50.137Z,0.20
2023-09-27T21:41:19.408Z,0.20
2023-09-27T21:43:46.937Z,0.20
2023-09-27T21:46:18.842Z,0.20
2023-09-27T21:48:46.791Z,0.20
2023-09-27T21:51:15.370Z,0.20
2023-09-27T21:53:42.817Z,0.20
2023-09-27T21:56:12.229Z,0.30
2023-09-27T21:58:39.861Z,0.20
2023-09-27T22:01:10.988Z,0.25
2023-09-27T22:03:38.544Z,0.30
2023-09-27T22:06:07.436Z,0.20
2023-09-27T22:08:34.994Z,0.20
2023-09-27T22:11:05.082Z,0.20
2023-09-27T22:13:39.103Z,0.20
2023-09-27T22:16:11.227Z,0.30
2023-09-27T22:18:42.647Z,0.20
2023-09-27T22:21:18.472Z,0.20
2023-09-27T22:23:46.614Z,0.20
2023-09-27T22:26:17.251Z,0.20
2023-09-27T22:28:46.677Z,0.30
2023-09-27T22:31:14.460Z,0.20
2023-09-27T22:33:42.030Z,0.25
2023-09-27T22:36:09.569Z,0.20
2023-09-27T22:38:37.519Z,0.20
2023-09-27T22:41:08.262Z,0.20
2023-09-27T22:43:38.662Z,0.20
2023-09-27T22:46:07.821Z,0.20
2023-09-27T22:48:34.303Z,0.30
2023-09-27T22:51:26.188Z,0.20
2023-09-27T22:53:53.849Z,0.30
2023-09-27T22:56:21.479Z,0.30
2023-09-27T22:58:50.041Z,0.30
2023-09-27T23:01:28.500Z,0.30
2023-09-27T23:03:56.824Z,0.30
2023-09-27T23:06:24.728Z,0.20
2023-09-27T23:08:53.322Z,0.20
2023-09-27T23:11:21.275Z,0.30
2023-09-27T23:13:58.743Z,0.30
2023-09-27T23:16:34.623Z,0.20
2023-09-27T23:19:03.720Z,0.30
2023-09-27T23:21:31.576Z,0.30
2023-09-27T23:24:00.581Z,0.20
2023-09-27T23:26:46.316Z,0.20
2023-09-27T23:29:35.627Z,0.30
2023-09-27T23:32:04.902Z,0.20
2023-09-27T23:34:35.498Z,0.20
2023-09-27T23:37:13.516Z,0.30
2023-09-27T23:39:48.270Z,0.20
2023-09-27T23:42:26.629Z,0.20
2023-09-27T23:44:54.846Z,0.20
2023-09-27T23:47:24.768Z,0.20
2023-09-27T23:49:57.805Z,0.20
2023-09-27T23:52:26.121Z,0.30
2023-09-27T23:54:57.487Z,0.30
2023-09-27T23:57:28.768Z,0.20
2023-09-27T23:59:56.938Z,0.20
